createdAt,value
2022-09-04T00:01:50.371Z,60.30
2022-09-04T00:07:02.412Z,61.20
2022-09-04T00:12:09.787Z,61.40
2022-09-04T00:17:19.608Z,61.00
2022-09-04T00:22:30.660Z,62.30
2022-09-04T00:27:44.322Z,61.80
2022-09-04T00:32:55.825Z,61.50
2022-09-04T00:38:05.257Z,62.50
2022-09-04T00:43:38.336Z,62.50
2022-09-04T00:49:11.441Z,63.40
2022-09-04T00:54:39.481Z,62.80
2022-09-04T01:00:06.417Z,62.80
2022-09-04T01:05:18.691Z,63.30
2022-09-04T01:10:36.586Z,63.00
2022-09-04T01:15:46.233Z,62.80
2022-09-04T01:20:59.487Z,63.00
2022-09-04T01:26:10.037Z,63.00
2022-09-04T01:31:25.555Z,63.80
2022-09-04T01:36:38.079Z,63.80
2022-09-04T01:41:47.430Z,63.60
2022-09-04T01:47:03.734Z,63.90
2022-09-04T01:52:37.809Z,64.00
2022-09-04T01:57:55.853Z,64.30
2022-09-04T02:03:08.371Z,64.50
2022-09-04T02:08:27.031Z,64.80
2022-09-04T02:13:45.048Z,65.30
2022-09-04T02:19:00.635Z,64.90
2022-09-04T02:24:11.229Z,65.30
2022-09-04T02:29:25.349Z,65.50
2022-09-04T02:34:38.909Z,65.30
2022-09-04T02:40:00.996Z,65.50
2022-09-04T02:45:17.820Z,65.80
2022-09-04T02:50:33.835Z,66.30
2022-09-04T02:55:53.717Z,66.30
2022-09-04T03:01:06.361Z,65.90
2022-09-04T03:06:13.522Z,66.60
2022-09-04T03:11:20.401Z,66.40
2022-09-04T03:16:30.448Z,66.70
2022-09-04T03:21:40.638Z,66.60
2022-09-04T03:26:48.211Z,66.50
2022-09-04T03:32:04.335Z,66.70
2022-09-04T03:37:31.685Z,66.40
2022-09-04T03:42:47.130Z,66.50
2022-09-04T03:48:10.211Z,66.40
2022-09-04T03:53:23.214Z,66.90
2022-09-04T03:58:38.245Z,66.70
2022-09-04T04:03:56.879Z,66.80
2022-09-04T04:09:36.915Z,67.50
2022-09-04T04:14:57.144Z,67.70
2022-09-04T04:20:11.908Z,68.30
2022-09-04T04:25:52.288Z,68.50
2022-09-04T04:31:05.688Z,69.30
2022-09-04T04:36:19.984Z,69.30
2022-09-04T04:42:02.597Z,69.30
2022-09-04T04:47:15.721Z,69.40
2022-09-04T04:52:35.896Z,68.90
2022-09-04T04:57:54.378Z,69.30
2022-09-04T05:03:09.146Z,69.70
2022-09-04T05:08:25.513Z,70.20
2022-09-04T05:13:40.410Z,70.10
2022-09-04T05:18:50.857Z,70.10
2022-09-04T05:24:03.467Z,70.20
2022-09-04T05:29:14.453Z,70.30
2022-09-04T05:34:27.099Z,70.30
2022-09-04T05:39:39.204Z,71.00
2022-09-04T05:44:55.681Z,70.40
2022-09-04T05:50:34.122Z,70.10
2022-09-04T05:56:07.645Z,69.70
2022-09-04T06:01:23.719Z,69.40
2022-09-04T06:06:37.687Z,69.10
2022-09-04T06:12:05.031Z,68.90
2022-09-04T06:17:22.642Z,68.80
2022-09-04T06:22:54.982Z,68.60
2022-09-04T06:28:18.837Z,68.40
2022-09-04T06:33:40.439Z,68.40
2022-09-04T06:38:56.813Z,68.30
2022-09-04T06:44:10.761Z,68.40
2022-09-04T06:49:19.079Z,69.10
2022-09-04T06:54:37.839Z,68.70
2022-09-04T07:00:11.729Z,68.50
2022-09-04T07:05:23.311Z,68.10
2022-09-04T07:10:32.819Z,68.00
2022-09-04T07:16:02.386Z,67.50
2022-09-04T07:21:17.426Z,67.50
2022-09-04T07:26:28.371Z,67.60
2022-09-04T07:31:39.803Z,67.30
2022-09-04T07:36:51.300Z,67.30
2022-09-04T07:42:02.519Z,67.20
2022-09-04T07:47:14.361Z,67.20
2022-09-04T07:52:29.781Z,68.00
2022-09-04T07:58:07.886Z,67.60
2022-09-04T08:03:30.229Z,66.80
2022-09-04T08:09:20.057Z,67.00
2022-09-04T08:14:53.174Z,66.60
2022-09-04T08:20:05.934Z,66.50
2022-09-04T08:25:21.098Z,66.20
2022-09-04T08:30:24.424Z,65.60
2022-09-04T08:35:34.841Z,65.50
2022-09-04T08:41:22.493Z,65.70
2022-09-04T08:46:49.390Z,65.50
2022-09-04T08:52:27.274Z,65.30
2022-09-04T08:57:58.549Z,65.10
2022-09-04T09:03:37.851Z,64.70
2022-09-04T09:09:23.429Z,65.00
2022-09-04T09:15:04.624Z,63.90
2022-09-04T09:20:26.741Z,63.60
2022-09-04T09:25:44.241Z,62.80
2022-09-04T09:31:12.300Z,62.60
2022-09-04T09:36:48.515Z,62.80
2022-09-04T09:42:17.200Z,61.90
2022-09-04T09:47:46.693Z,61.60
2022-09-04T09:53:25.376Z,60.80
2022-09-04T09:58:50.319Z,59.80
2022-09-04T10:04:28.691Z,59.60
2022-09-04T10:09:48.938Z,59.20
2022-09-04T10:15:55.376Z,59.40
2022-09-04T10:21:27.879Z,58.80
2022-09-04T10:26:56.583Z,58.00
2022-09-04T10:32:20.003Z,57.10
2022-09-04T10:37:38.809Z,57.30
2022-09-04T10:42:53.248Z,56.50
2022-09-04T10:48:20.097Z,56.10
2022-09-04T10:53:48.016Z,55.10
2022-09-04T10:59:21.254Z,53.80
2022-09-04T11:05:09.929Z,53.20
2022-09-04T11:10:38.146Z,52.50
2022-09-04T11:16:09.482Z,52.40
2022-09-04T11:22:08.750Z,53.40
2022-09-04T11:27:54.958Z,52.40
2022-09-04T11:33:30.331Z,51.50
2022-09-04T11:38:57.634Z,50.60
2022-09-04T11:44:33.123Z,50.50
2022-09-04T11:49:52.917Z,49.60
2022-09-04T11:55:42.207Z,49.10
2022-09-04T12:00:59.344Z,48.30
2022-09-04T12:06:18.739Z,48.80
2022-09-04T12:12:11.123Z,47.80
2022-09-04T12:17:48.378Z,47.10
2022-09-04T12:23:31.510Z,47.10
2022-09-04T12:29:07.497Z,46.40
2022-09-04T12:34:49.483Z,45.40
2022-09-04T12:40:29.299Z,45.70
2022-09-04T12:45:42.493Z,45.40
2022-09-04T12:50:54.679Z,44.40
2022-09-04T12:56:05.806Z,44.50
2022-09-04T13:01:15.372Z,43.50
2022-09-04T13:06:30.625Z,43.80
2022-09-04T13:11:43.513Z,43.10
2022-09-04T13:16:55.062Z,42.70
2022-09-04T13:22:15.813Z,42.00
2022-09-04T13:27:34.239Z,40.80
2022-09-04T13:32:51.616Z,40.70
2022-09-04T13:38:24.304Z,41.00
2022-09-04T13:43:46.614Z,39.30
2022-09-04T13:48:55.262Z,40.00
2022-09-04T13:54:07.726Z,39.40
2022-09-04T13:59:16.365Z,40.20
2022-09-04T14:04:26.440Z,40.60
2022-09-04T14:09:37.425Z,40.40
2022-09-04T14:15:13.662Z,40.60
2022-09-04T14:20:22.724Z,41.10
2022-09-04T14:25:34.449Z,41.30
2022-09-04T14:30:45.707Z,40.40
2022-09-04T14:36:03.166Z,40.30
2022-09-04T14:41:18.367Z,38.80
2022-09-04T14:46:31.274Z,39.60
2022-09-04T14:51:38.525Z,40.00
2022-09-04T14:56:48.044Z,39.10
2022-09-04T15:02:18.332Z,37.20
2022-09-04T15:07:32.737Z,34.80
2022-09-04T15:12:41.515Z,34.80
2022-09-04T15:17:51.545Z,35.10
2022-09-04T15:22:58.318Z,34.20
2022-09-04T15:28:07.037Z,33.00
2022-09-04T15:33:12.969Z,32.90
2022-09-04T15:38:20.684Z,30.10
2022-09-04T15:43:29.638Z,30.00
2022-09-04T15:48:47.464Z,30.60
2022-09-04T15:54:13.261Z,31.20
2022-09-04T15:59:21.233Z,30.30
2022-09-04T16:04:30.469Z,32.10
2022-09-04T16:09:39.974Z,31.90
2022-09-04T16:14:49.413Z,32.10
2022-09-04T16:19:59.387Z,32.10
2022-09-04T16:25:11.848Z,32.20
2022-09-04T16:30:33.058Z,31.90
2022-09-04T16:35:42.516Z,32.20
2022-09-04T16:40:55.952Z,31.70
2022-09-04T16:46:12.699Z,32.00
2022-09-04T16:51:39.224Z,32.00
2022-09-04T16:56:50.185Z,32.60
2022-09-04T17:02:01.655Z,33.20
2022-09-04T17:07:15.796Z,33.90
2022-09-04T17:12:43.217Z,34.30
2022-09-04T17:17:48.483Z,35.00
2022-09-04T17:29:04.760Z,35.90
2022-09-04T17:29:14.172Z,36.80
2022-09-04T17:40:08.926Z,37.90
2022-09-04T17:40:48.031Z,39.00
2022-09-04T17:45:11.590Z,39.50
2022-09-04T17:50:19.181Z,40.10
2022-09-04T17:55:23.225Z,40.90
2022-09-04T18:00:32.855Z,40.80
2022-09-04T18:05:53.361Z,42.50
2022-09-04T18:11:03.004Z,42.00
2022-09-04T18:16:15.211Z,42.30
2022-09-04T18:21:24.703Z,43.00
2022-09-04T18:26:41.191Z,43.30
2022-09-04T18:37:10.952Z,43.50
2022-09-04T18:37:44.626Z,43.80
2022-09-04T18:50:29.962Z,44.20
2022-09-04T18:50:46.485Z,44.30
2022-09-04T18:53:50.892Z,44.90
2022-09-04T18:59:00.460Z,45.30
2022-09-04T19:04:32.129Z,45.40
2022-09-04T19:09:56.477Z,45.90
2022-09-04T19:15:01.152Z,46.30
2022-09-04T19:20:10.579Z,46.50
2022-09-04T19:25:20.814Z,47.20
2022-09-04T19:30:27.465Z,46.90
2022-09-04T19:35:38.342Z,48.10
2022-09-04T19:46:06.405Z,48.00
2022-09-04T19:46:37.163Z,49.20
2022-09-04T19:53:30.487Z,50.30
2022-09-04T19:57:32.325Z,50.60
2022-09-04T20:02:48.011Z,50.30
2022-09-04T20:07:56.886Z,51.30
2022-09-04T20:13:16.741Z,50.70
2022-09-04T20:18:24.257Z,50.90
2022-09-04T20:23:34.892Z,51.60
2022-09-04T20:28:54.178Z,52.30
2022-09-04T20:34:03.505Z,52.80
2022-09-04T20:39:19.527Z,51.90
2022-09-04T20:44:31.872Z,52.80
2022-09-04T20:52:51.289Z,53.20
2022-09-04T20:55:24.977Z,53.20
2022-09-04T21:03:14.705Z,55.30
2022-09-04T21:06:27.171Z,56.40
2022-09-04T21:11:41.704Z,57.60
2022-09-04T21:17:35.026Z,58.60
2022-09-04T21:22:54.207Z,58.70
2022-09-04T21:28:39.167Z,59.10
2022-09-04T21:33:56.610Z,59.50
2022-09-04T21:39:32.974Z,60.40
2022-09-04T21:45:02.048Z,59.90
2022-09-04T21:50:35.295Z,60.10
2022-09-04T22:02:30.592Z,60.30
2022-09-04T22:02:45.890Z,60.90
2022-09-04T22:12:16.914Z,60.90
2022-09-04T22:13:38.392Z,61.20
2022-09-04T22:18:43.129Z,61.60
2022-09-04T22:24:32.239Z,61.50
2022-09-04T22:29:51.440Z,61.80
2022-09-04T22:35:35.918Z,61.80
2022-09-04T22:40:57.039Z,62.00
2022-09-04T22:46:27.252Z,62.00
2022-09-04T22:51:49.236Z,61.80
2022-09-04T22:56:56.258Z,61.90
2022-09-04T23:02:39.912Z,62.00
2022-09-04T23:13:42.211Z,62.00
2022-09-04T23:14:06.555Z,62.00
2022-09-04T23:23:35.022Z,62.50
2022-09-04T23:26:50.363Z,62.30
2022-09-04T23:30:49.626Z,62.70
2022-09-04T23:36:09.282Z,62.60
2022-09-04T23:41:53.345Z,62.70
2022-09-04T23:47:47.808Z,63.10
2022-09-04T23:53:25.981Z,63.00
2022-09-04T23:59:21.173Z,63.20
